createdAt,value
2023-02-19T00:00:02.775Z,546.29
2023-02-19T00:00:14.789Z,546.38
2023-02-19T00:00:26.770Z,546.37
2023-02-19T00:00:37.790Z,546.28
2023-02-19T00:00:49.767Z,546.25
2023-02-19T00:01:00.783Z,546.33
2023-02-19T00:01:12.759Z,546.36
2023-02-19T00:01:23.790Z,546.36
2023-02-19T00:01:35.775Z,546.60
2023-02-19T00:01:46.816Z,546.59
2023-02-19T00:01:58.831Z,546.61
2023-02-19T00:02:10.801Z,546.56
2023-02-19T00:02:22.784Z,546.54
2023-02-19T00:02:33.792Z,546.65
2023-02-19T00:02:45.782Z,546.63
2023-02-19T00:02:57.771Z,546.72
2023-02-19T00:03:08.812Z,546.87
2023-02-19T00:03:20.834Z,547.02
2023-02-19T00:03:31.810Z,547.02
2023-02-19T00:03:42.779Z,547.10
2023-02-19T00:03:53.815Z,547.07
2023-02-19T00:04:05.810Z,547.32
2023-02-19T00:04:17.785Z,547.35
2023-02-19T00:04:28.793Z,547.29
2023-02-19T00:04:40.835Z,547.44
2023-02-19T00:04:51.801Z,547.54
2023-02-19T00:05:02.820Z,547.23
2023-02-19T00:05:13.884Z,547.40
2023-02-19T00:05:25.785Z,547.46
2023-02-19T00:05:37.756Z,547.53
2023-02-19T00:05:48.766Z,547.65
2023-02-19T00:05:59.778Z,547.71
2023-02-19T00:06:10.795Z,547.66
2023-02-19T00:06:22.780Z,547.62
2023-02-19T00:06:34.767Z,547.62
2023-02-19T00:06:46.766Z,547.76
2023-02-19T00:06:57.776Z,547.86
2023-02-19T00:07:09.764Z,547.74
2023-02-19T00:07:20.815Z,547.67
2023-02-19T00:07:32.794Z,547.75
2023-02-19T00:07:44.798Z,547.76
2023-02-19T00:07:56.784Z,547.86
2023-02-19T00:08:08.769Z,547.83
2023-02-19T00:08:19.799Z,547.80
2023-02-19T00:08:31.780Z,547.83
2023-02-19T00:08:42.789Z,548.07
2023-02-19T00:08:54.760Z,548.16
2023-02-19T00:09:05.772Z,548.06
2023-02-19T00:09:17.764Z,548.01
2023-02-19T00:09:28.782Z,547.93
2023-02-19T00:09:39.797Z,547.93
2023-02-19T00:09:51.771Z,547.91
2023-02-19T00:10:02.792Z,547.92
2023-02-19T00:10:14.773Z,548.03
2023-02-19T00:10:25.788Z,548.06
2023-02-19T00:10:37.801Z,548.21
2023-02-19T00:10:49.766Z,548.40
2023-02-19T00:11:00.796Z,548.37
2023-02-19T00:11:12.773Z,548.28
2023-02-19T00:11:23.778Z,548.42
2023-02-19T00:11:35.768Z,548.40
2023-02-19T00:11:47.993Z,548.35
2023-02-19T00:11:58.770Z,548.47
2023-02-19T00:12:09.786Z,548.51
2023-02-19T00:12:21.778Z,548.53
2023-02-19T00:12:33.760Z,548.59
2023-02-19T00:12:44.762Z,548.76
2023-02-19T00:12:55.788Z,548.93
2023-02-19T00:13:07.755Z,548.88
2023-02-19T00:13:18.765Z,548.78
2023-02-19T00:13:29.771Z,548.90
2023-02-19T00:13:41.756Z,548.93
2023-02-19T00:13:52.783Z,549.00
2023-02-19T00:14:03.794Z,549.11
2023-02-19T00:14:15.797Z,549.12
2023-02-19T00:14:27.780Z,549.05
2023-02-19T00:14:39.758Z,549.13
2023-02-19T00:14:50.777Z,549.19
2023-02-19T00:15:02.805Z,549.30
2023-02-19T00:15:14.795Z,549.30
2023-02-19T00:15:26.819Z,549.25
2023-02-19T00:15:38.932Z,549.17
2023-02-19T00:15:49.828Z,549.13
2023-02-19T00:16:00.772Z,549.15
2023-02-19T00:16:12.764Z,549.16
2023-02-19T00:16:23.778Z,549.17
2023-02-19T00:16:35.780Z,549.16
2023-02-19T00:16:46.788Z,549.15
2023-02-19T00:16:58.763Z,549.10
2023-02-19T00:17:09.763Z,549.06
2023-02-19T00:17:20.784Z,548.99
2023-02-19T00:17:32.805Z,548.93
2023-02-19T00:17:44.804Z,549.05
2023-02-19T00:17:56.788Z,549.18
2023-02-19T00:18:07.798Z,549.24
2023-02-19T00:18:19.766Z,549.57
2023-02-19T00:18:30.771Z,549.66
2023-02-19T00:18:41.778Z,549.75
2023-02-19T00:18:53.765Z,549.70
2023-02-19T00:19:04.769Z,549.66
2023-02-19T00:19:15.795Z,549.72
2023-02-19T00:19:27.780Z,549.76
2023-02-19T00:19:38.786Z,549.82
2023-02-19T00:19:50.778Z,549.89
2023-02-19T00:20:01.810Z,549.90
2023-02-19T00:20:13.792Z,550.03
2023-02-19T00:20:25.768Z,550.13
2023-02-19T00:20:36.794Z,550.18
2023-02-19T00:20:48.787Z,550.19
2023-02-19T00:20:59.803Z,550.34
2023-02-19T00:21:12.013Z,550.49
2023-02-19T00:21:22.752Z,550.72
2023-02-19T00:21:33.767Z,550.95
2023-02-19T00:21:44.788Z,551.11
2023-02-19T00:21:56.759Z,551.29
2023-02-19T00:22:07.785Z,551.31
2023-02-19T00:22:19.775Z,551.37
2023-02-19T00:22:30.786Z,551.50
2023-02-19T00:22:42.776Z,551.59
2023-02-19T00:22:54.759Z,551.59
2023-02-19T00:23:05.776Z,551.54
2023-02-19T00:23:16.782Z,551.47
2023-02-19T00:23:28.758Z,551.44
2023-02-19T00:23:39.772Z,551.41
2023-02-19T00:23:50.791Z,551.44
2023-02-19T00:24:02.799Z,551.44
2023-02-19T00:24:14.787Z,551.48
2023-02-19T00:24:26.770Z,551.54
2023-02-19T00:24:37.785Z,551.55
2023-02-19T00:24:49.772Z,551.52
2023-02-19T00:25:00.785Z,551.44
2023-02-19T00:25:11.793Z,551.44
2023-02-19T00:25:23.782Z,551.49
2023-02-19T00:25:35.766Z,551.44
2023-02-19T00:25:47.774Z,551.43
2023-02-19T00:26:08.915Z,551.34
2023-02-19T00:26:18.097Z,551.27
2023-02-19T00:26:22.786Z,551.25
2023-02-19T00:26:32.773Z,551.30
2023-02-19T00:26:44.775Z,551.28
2023-02-19T00:26:55.733Z,551.32
2023-02-19T00:27:06.740Z,551.29
2023-02-19T00:27:17.757Z,551.27
2023-02-19T00:27:28.776Z,551.26
2023-02-19T00:27:40.767Z,551.23
2023-02-19T00:27:51.777Z,551.22
2023-02-19T00:28:02.789Z,551.19
2023-02-19T00:28:14.771Z,551.19
2023-02-19T00:28:25.774Z,551.28
2023-02-19T00:28:37.759Z,551.38
2023-02-19T00:28:48.774Z,551.45
2023-02-19T00:29:00.776Z,551.50
2023-02-19T00:29:11.790Z,551.50
2023-02-19T00:29:23.771Z,551.48
2023-02-19T00:29:34.794Z,551.47
2023-02-19T00:29:46.773Z,551.43
2023-02-19T00:29:58.865Z,551.41
2023-02-19T00:30:09.843Z,551.34
2023-02-19T00:30:20.883Z,551.32
2023-02-19T00:30:32.841Z,551.31
2023-02-19T00:30:43.817Z,551.32
2023-02-19T00:30:54.827Z,551.39
2023-02-19T00:31:05.838Z,551.40
2023-02-19T00:31:16.815Z,551.39
2023-02-19T00:31:27.894Z,551.40
2023-02-19T00:31:38.922Z,551.36
2023-02-19T00:31:49.959Z,551.37
2023-02-19T00:32:01.857Z,551.35
2023-02-19T00:32:13.857Z,551.34
2023-02-19T00:32:25.728Z,551.41
2023-02-19T00:32:36.741Z,551.43
2023-02-19T00:32:47.769Z,551.48
2023-02-19T00:32:58.792Z,551.46
2023-02-19T00:33:10.764Z,551.52
2023-02-19T00:33:21.772Z,551.54
2023-02-19T00:33:32.791Z,551.54
2023-02-19T00:33:44.770Z,551.54
2023-02-19T00:33:55.792Z,551.55
2023-02-19T00:34:07.771Z,551.53
2023-02-19T00:34:18.777Z,551.49
2023-02-19T00:34:30.786Z,551.57
2023-02-19T00:34:41.806Z,551.56
2023-02-19T00:34:53.788Z,551.56
2023-02-19T00:35:05.772Z,551.53
2023-02-19T00:35:16.793Z,551.60
2023-02-19T00:35:28.770Z,551.64
2023-02-19T00:35:39.781Z,551.68
2023-02-19T00:35:51.758Z,551.67
2023-02-19T00:36:02.788Z,551.68
2023-02-19T00:36:14.774Z,551.61
2023-02-19T00:36:25.783Z,551.55
2023-02-19T00:36:36.799Z,551.47
2023-02-19T00:36:48.774Z,551.45
2023-02-19T00:36:59.786Z,551.45
2023-02-19T00:37:11.762Z,551.44
2023-02-19T00:37:22.777Z,551.48
2023-02-19T00:37:33.787Z,551.46
2023-02-19T00:37:45.781Z,551.49
2023-02-19T00:37:57.761Z,551.42
2023-02-19T00:38:08.775Z,551.43
2023-02-19T00:38:19.795Z,551.50
2023-02-19T00:38:31.768Z,551.56
2023-02-19T00:38:42.781Z,551.68
2023-02-19T00:38:53.788Z,551.71
2023-02-19T00:39:05.777Z,551.71
2023-02-19T00:39:17.772Z,551.67
2023-02-19T00:39:29.771Z,551.61
2023-02-19T00:39:41.770Z,551.59
2023-02-19T00:39:52.791Z,551.64
2023-02-19T00:40:04.781Z,551.67
2023-02-19T00:40:16.770Z,551.72
2023-02-19T00:40:28.771Z,551.72
2023-02-19T00:40:39.786Z,551.70
2023-02-19T00:40:51.768Z,551.65
2023-02-19T00:41:02.780Z,551.61
2023-02-19T00:41:14.769Z,551.60
2023-02-19T00:41:25.789Z,551.68
2023-02-19T00:41:37.771Z,551.74
2023-02-19T00:41:48.782Z,551.77
2023-02-19T00:41:59.805Z,551.86
2023-02-19T00:42:11.793Z,551.86
2023-02-19T00:42:23.773Z,551.80
2023-02-19T00:42:34.783Z,551.78
2023-02-19T00:42:45.798Z,551.81
2023-02-19T00:42:57.793Z,551.80
2023-02-19T00:43:09.777Z,551.91
2023-02-19T00:43:21.763Z,551.98
2023-02-19T00:43:32.800Z,552.02
2023-02-19T00:43:44.796Z,552.06
2023-02-19T00:43:56.770Z,552.10
2023-02-19T00:44:07.793Z,552.13
2023-02-19T00:44:19.785Z,552.19
2023-02-19T00:44:30.803Z,552.31
2023-02-19T00:44:42.783Z,552.44
2023-02-19T00:44:54.779Z,552.46
2023-02-19T00:45:06.779Z,552.39
2023-02-19T00:45:18.772Z,552.36
2023-02-19T00:45:29.846Z,552.37
2023-02-19T00:45:41.833Z,552.39
2023-02-19T00:45:53.813Z,552.46
2023-02-19T00:46:05.830Z,552.50
2023-02-19T00:46:16.788Z,552.56
2023-02-19T00:46:27.838Z,552.58
2023-02-19T00:46:38.866Z,552.57
2023-02-19T00:46:50.782Z,552.65
2023-02-19T00:47:01.800Z,552.68
2023-02-19T00:47:13.785Z,552.66
2023-02-19T00:47:24.798Z,552.68
2023-02-19T00:47:35.784Z,552.75
2023-02-19T00:47:46.794Z,552.83
2023-02-19T00:47:58.781Z,552.87
2023-02-19T00:48:10.795Z,552.94
2023-02-19T00:48:21.807Z,553.03
2023-02-19T00:48:33.785Z,553.18
2023-02-19T00:48:45.788Z,553.36
2023-02-19T00:48:56.800Z,553.45
2023-02-19T00:49:08.788Z,553.55
2023-02-19T00:49:20.780Z,553.59
2023-02-19T00:49:32.780Z,553.67
2023-02-19T00:49:43.788Z,553.69
2023-02-19T00:49:55.782Z,553.70
2023-02-19T00:50:07.798Z,553.68
2023-02-19T00:50:19.788Z,553.66
2023-02-19T00:50:31.778Z,553.68
2023-02-19T00:50:42.793Z,553.69
2023-02-19T00:50:54.771Z,553.70
2023-02-19T00:51:05.779Z,553.77
2023-02-19T00:51:17.776Z,553.84
2023-02-19T00:51:29.783Z,553.88
2023-02-19T00:51:41.763Z,553.88
2023-02-19T00:51:52.818Z,553.90
2023-02-19T00:52:03.847Z,553.93
2023-02-19T00:52:15.826Z,553.99
2023-02-19T00:52:27.813Z,553.96
2023-02-19T00:52:39.800Z,553.97
2023-02-19T00:52:51.810Z,553.97
2023-02-19T00:53:03.782Z,553.96
2023-02-19T00:53:15.797Z,553.94
2023-02-19T00:53:27.790Z,553.92
2023-02-19T00:53:39.788Z,553.91
2023-02-19T00:53:51.793Z,553.90
2023-02-19T00:54:03.773Z,553.90
2023-02-19T00:54:14.794Z,553.89
2023-02-19T00:54:26.800Z,553.86
2023-02-19T00:54:38.789Z,553.85
2023-02-19T00:54:49.805Z,553.86
2023-02-19T00:55:01.791Z,553.86
2023-02-19T00:55:12.818Z,553.87
2023-02-19T00:55:24.804Z,553.88
2023-02-19T00:55:36.789Z,553.90
2023-02-19T00:55:47.817Z,553.87
2023-02-19T00:55:59.802Z,553.84
2023-02-19T00:56:11.824Z,553.79
2023-02-19T00:56:23.793Z,553.77
2023-02-19T00:56:34.808Z,553.77
2023-02-19T00:56:46.790Z,553.78
2023-02-19T00:56:57.755Z,553.80
2023-02-19T00:57:08.758Z,553.83
2023-02-19T00:57:19.767Z,553.87
2023-02-19T00:57:31.784Z,553.86
2023-02-19T00:57:42.802Z,553.85
2023-02-19T00:57:54.784Z,553.97
2023-02-19T00:58:06.770Z,554.09
2023-02-19T00:58:17.781Z,554.17
2023-02-19T00:58:28.799Z,554.25
2023-02-19T00:58:40.786Z,554.28
2023-02-19T00:58:51.805Z,554.23
2023-02-19T00:59:03.801Z,554.25
2023-02-19T00:59:14.817Z,554.32
2023-02-19T00:59:26.807Z,554.45
2023-02-19T00:59:38.788Z,554.55
2023-02-19T00:59:50.793Z,554.58
2023-02-19T01:00:02.780Z,554.53
2023-02-19T01:00:13.799Z,554.53
2023-02-19T01:00:25.777Z,554.61
2023-02-19T01:00:36.794Z,554.68
2023-02-19T01:00:48.785Z,554.78
2023-02-19T01:01:00.779Z,554.85
2023-02-19T01:01:12.766Z,554.87
2023-02-19T01:01:23.890Z,554.86
2023-02-19T01:01:34.773Z,554.89
2023-02-19T01:01:45.923Z,554.87
2023-02-19T01:01:57.825Z,554.93
2023-02-19T01:02:09.831Z,554.95
2023-02-19T01:02:21.807Z,554.97
2023-02-19T01:02:33.793Z,555.01
2023-02-19T01:02:45.768Z,555.14
2023-02-19T01:02:56.791Z,555.20
2023-02-19T01:03:07.816Z,555.29
2023-02-19T01:03:19.802Z,555.36
2023-02-19T01:03:31.780Z,555.39
2023-02-19T01:03:42.794Z,555.39
2023-02-19T01:03:54.785Z,555.32
2023-02-19T01:04:07.014Z,555.33
2023-02-19T01:04:17.791Z,555.31
2023-02-19T01:04:29.789Z,555.33
2023-02-19T01:04:41.857Z,555.37
2023-02-19T01:04:53.895Z,555.46
2023-02-19T01:05:05.788Z,555.41
2023-02-19T01:05:16.801Z,555.34
2023-02-19T01:05:28.795Z,555.30
2023-02-19T01:05:40.801Z,555.20
2023-02-19T01:05:52.790Z,555.26
2023-02-19T01:06:04.798Z,555.34
2023-02-19T01:06:16.795Z,555.39
2023-02-19T01:06:28.784Z,555.48
2023-02-19T01:06:40.773Z,555.55
2023-02-19T01:06:52.780Z,555.59
2023-02-19T01:07:03.745Z,555.57
2023-02-19T01:07:14.756Z,555.55
2023-02-19T01:07:25.781Z,555.48
2023-02-19T01:07:36.798Z,555.49
2023-02-19T01:07:48.781Z,555.48
2023-02-19T01:07:59.801Z,555.45
2023-02-19T01:08:11.790Z,555.52
2023-02-19T01:08:23.782Z,555.52
2023-02-19T01:08:34.805Z,555.53
2023-02-19T01:08:45.808Z,555.51
2023-02-19T01:08:57.790Z,555.56
2023-02-19T01:09:09.793Z,555.54
2023-02-19T01:09:21.776Z,555.51
2023-02-19T01:09:32.793Z,555.45
2023-02-19T01:09:43.804Z,555.37
2023-02-19T01:09:55.797Z,555.32
2023-02-19T01:10:07.785Z,555.19
2023-02-19T01:10:19.772Z,555.03
2023-02-19T01:10:30.793Z,554.96
2023-02-19T01:10:42.788Z,555.23
2023-02-19T01:10:54.773Z,555.35
2023-02-19T01:11:05.776Z,555.51
2023-02-19T01:11:17.766Z,555.64
2023-02-19T01:11:28.782Z,555.58
2023-02-19T01:11:40.768Z,555.50
2023-02-19T01:11:51.791Z,555.64
2023-02-19T01:12:03.768Z,555.79
2023-02-19T01:12:14.775Z,555.76
2023-02-19T01:12:25.821Z,555.75
2023-02-19T01:12:36.784Z,555.86
2023-02-19T01:12:48.771Z,556.01
2023-02-19T01:12:59.783Z,556.11
2023-02-19T01:13:10.804Z,556.10
2023-02-19T01:13:22.797Z,556.22
2023-02-19T01:13:34.796Z,556.29
2023-02-19T01:13:46.767Z,556.27
2023-02-19T01:13:58.809Z,556.33
2023-02-19T01:14:09.794Z,556.41
2023-02-19T01:14:21.791Z,556.52
2023-02-19T01:14:33.769Z,556.59
2023-02-19T01:14:45.356Z,556.61
2023-02-19T01:14:55.799Z,556.67
2023-02-19T01:15:07.817Z,556.69
2023-02-19T01:15:19.798Z,556.69
2023-02-19T01:15:30.821Z,556.63
2023-02-19T01:15:42.817Z,556.57
2023-02-19T01:15:54.805Z,556.57
2023-02-19T01:16:05.898Z,556.66
2023-02-19T01:16:16.811Z,556.73
2023-02-19T01:16:28.846Z,556.67
2023-02-19T01:16:39.792Z,556.70
2023-02-19T01:16:50.817Z,556.69
2023-02-19T01:17:02.795Z,556.75
2023-02-19T01:17:14.766Z,556.71
2023-02-19T01:17:25.793Z,556.68
2023-02-19T01:17:37.776Z,556.67
2023-02-19T01:17:48.794Z,556.69
2023-02-19T01:18:00.771Z,556.75
2023-02-19T01:18:11.789Z,556.83
2023-02-19T01:18:22.815Z,556.81
2023-02-19T01:18:34.799Z,556.80
2023-02-19T01:18:46.785Z,556.73
2023-02-19T01:18:57.805Z,556.63
2023-02-19T01:19:09.790Z,556.63
2023-02-19T01:19:21.763Z,556.75
2023-02-19T01:19:32.770Z,556.85
2023-02-19T01:19:43.786Z,556.95
2023-02-19T01:19:55.768Z,557.15
2023-02-19T01:20:06.781Z,557.32
2023-02-19T01:20:18.794Z,557.25
2023-02-19T01:20:29.802Z,557.24
2023-02-19T01:20:41.779Z,557.30
2023-02-19T01:20:52.797Z,557.36
2023-02-19T01:21:04.779Z,557.33
2023-02-19T01:21:15.818Z,557.38
2023-02-19T01:21:27.797Z,557.34
2023-02-19T01:21:39.758Z,557.23
2023-02-19T01:21:51.778Z,557.24
2023-02-19T01:22:02.797Z,557.29
2023-02-19T01:22:14.822Z,557.16
2023-02-19T01:22:26.807Z,557.04
2023-02-19T01:22:38.807Z,557.06
2023-02-19T01:22:50.788Z,557.13
2023-02-19T01:23:01.796Z,557.14
2023-02-19T01:23:13.795Z,557.22
2023-02-19T01:23:25.781Z,557.19
2023-02-19T01:23:37.781Z,557.06
2023-02-19T01:23:48.791Z,557.04
2023-02-19T01:24:00.789Z,557.09
2023-02-19T01:24:12.768Z,557.15
2023-02-19T01:24:23.780Z,557.16
2023-02-19T01:24:34.799Z,557.21
2023-02-19T01:24:46.806Z,557.15
2023-02-19T01:24:58.786Z,557.07
2023-02-19T01:25:10.785Z,556.84
2023-02-19T01:25:21.800Z,556.60
2023-02-19T01:25:33.787Z,556.53
2023-02-19T01:25:44.811Z,556.53
2023-02-19T01:25:56.818Z,556.50
2023-02-19T01:26:08.790Z,556.49
2023-02-19T01:26:20.780Z,556.42
2023-02-19T01:26:32.773Z,556.28
2023-02-19T01:26:44.757Z,556.12
2023-02-19T01:26:55.771Z,556.07
2023-02-19T01:27:06.793Z,556.09
2023-02-19T01:27:17.809Z,556.09
2023-02-19T01:27:29.802Z,556.17
2023-02-19T01:27:41.788Z,556.22
2023-02-19T01:27:53.778Z,556.12
2023-02-19T01:28:04.808Z,556.06
2023-02-19T01:28:16.787Z,556.03
2023-02-19T01:28:28.774Z,556.37
2023-02-19T01:28:39.790Z,556.58
2023-02-19T01:28:51.771Z,556.66
2023-02-19T01:29:02.810Z,556.44
2023-02-19T01:29:14.793Z,556.49
2023-02-19T01:29:26.785Z,556.66
2023-02-19T01:29:37.752Z,556.94
2023-02-19T01:29:48.762Z,556.86
2023-02-19T01:29:59.795Z,556.91
2023-02-19T01:30:11.827Z,557.13
2023-02-19T01:30:22.822Z,557.32
2023-02-19T01:30:33.835Z,557.32
2023-02-19T01:30:44.745Z,557.13
2023-02-19T01:30:55.782Z,557.10
2023-02-19T01:31:08.074Z,556.88
2023-02-19T01:31:19.847Z,556.63
2023-02-19T01:31:31.838Z,556.69
2023-02-19T01:31:42.783Z,556.84
2023-02-19T01:31:53.829Z,556.89
2023-02-19T01:32:04.943Z,556.88
2023-02-19T01:32:16.792Z,556.94
2023-02-19T01:32:28.798Z,557.12
2023-02-19T01:32:40.780Z,557.42
2023-02-19T01:32:52.769Z,557.52
2023-02-19T01:33:03.782Z,557.44
2023-02-19T01:33:14.790Z,557.42
2023-02-19T01:33:26.779Z,557.48
2023-02-19T01:33:37.793Z,557.61
2023-02-19T01:33:49.781Z,557.83
2023-02-19T01:34:01.779Z,557.79
2023-02-19T01:34:13.762Z,557.70
2023-02-19T01:34:24.776Z,557.70
2023-02-19T01:34:35.780Z,557.67
2023-02-19T01:34:47.766Z,557.66
2023-02-19T01:34:58.778Z,557.62
2023-02-19T01:35:10.765Z,557.59
2023-02-19T01:35:21.801Z,557.60
2023-02-19T01:35:33.792Z,557.60
2023-02-19T01:35:45.812Z,557.73
2023-02-19T01:35:57.786Z,557.89
2023-02-19T01:36:09.761Z,558.14
2023-02-19T01:36:20.772Z,558.16
2023-02-19T01:36:31.786Z,557.99
2023-02-19T01:36:42.804Z,557.89
2023-02-19T01:36:54.803Z,557.93
2023-02-19T01:37:06.817Z,557.92
2023-02-19T01:37:18.789Z,557.90
2023-02-19T01:37:30.762Z,557.81
2023-02-19T01:37:41.784Z,558.02
2023-02-19T01:37:53.767Z,558.10
2023-02-19T01:38:05.786Z,558.06
2023-02-19T01:38:17.766Z,557.97
2023-02-19T01:38:28.787Z,557.91
2023-02-19T01:38:40.775Z,557.97
2023-02-19T01:38:52.780Z,558.24
2023-02-19T01:39:03.825Z,558.44
2023-02-19T01:39:15.821Z,558.60
2023-02-19T01:39:27.808Z,558.77
2023-02-19T01:39:39.793Z,558.87
2023-02-19T01:39:51.779Z,558.77
2023-02-19T01:40:03.817Z,558.65
2023-02-19T01:40:14.749Z,558.51
2023-02-19T01:40:25.775Z,558.57
2023-02-19T01:40:36.788Z,558.78
2023-02-19T01:40:48.765Z,558.69
2023-02-19T01:40:59.790Z,558.54
2023-02-19T01:41:12.124Z,558.51
2023-02-19T01:41:22.799Z,558.68
2023-02-19T01:41:34.774Z,558.77
2023-02-19T01:41:46.785Z,558.50
2023-02-19T01:41:58.773Z,558.47
2023-02-19T01:42:09.788Z,558.73
2023-02-19T01:42:20.794Z,558.82
2023-02-19T01:42:32.772Z,558.51
2023-02-19T01:42:43.780Z,558.26
2023-02-19T01:42:55.759Z,558.66
2023-02-19T01:43:06.774Z,559.16
2023-02-19T01:43:17.780Z,559.31
2023-02-19T01:43:29.778Z,559.35
2023-02-19T01:43:41.756Z,559.09
2023-02-19T01:43:52.774Z,558.91
2023-02-19T01:44:03.788Z,558.80
2023-02-19T01:44:15.777Z,558.74
2023-02-19T01:44:26.781Z,558.74
2023-02-19T01:44:38.767Z,558.79
2023-02-19T01:44:49.788Z,558.74
2023-02-19T01:45:01.773Z,558.78
2023-02-19T01:45:12.790Z,558.82
2023-02-19T01:45:24.774Z,558.65
2023-02-19T01:45:35.784Z,558.52
2023-02-19T01:45:47.757Z,558.33
2023-02-19T01:45:58.777Z,558.27
2023-02-19T01:46:10.916Z,558.18
2023-02-19T01:46:21.887Z,558.25
2023-02-19T01:46:32.891Z,558.24
2023-02-19T01:46:43.751Z,558.07
2023-02-19T01:46:54.814Z,558.12
2023-02-19T01:47:05.760Z,558.08
2023-02-19T01:47:16.782Z,558.06
2023-02-19T01:47:28.774Z,557.98
2023-02-19T01:47:39.796Z,558.07
2023-02-19T01:47:51.801Z,558.18
2023-02-19T01:48:03.783Z,558.50
2023-02-19T01:48:15.782Z,558.48
2023-02-19T01:48:27.784Z,558.35
2023-02-19T01:48:39.778Z,558.21
2023-02-19T01:48:50.791Z,558.20
2023-02-19T01:49:02.771Z,558.21
2023-02-19T01:49:14.794Z,558.33
2023-02-19T01:49:25.742Z,558.69
2023-02-19T01:49:36.772Z,558.83
2023-02-19T01:49:48.777Z,559.04
2023-02-19T01:49:59.783Z,559.12
2023-02-19T01:50:11.768Z,559.25
2023-02-19T01:50:22.790Z,559.34
2023-02-19T01:50:34.782Z,559.21
2023-02-19T01:50:46.771Z,558.99
2023-02-19T01:50:57.782Z,558.86
2023-02-19T01:51:09.995Z,558.99
2023-02-19T01:51:20.823Z,559.27
2023-02-19T01:51:32.800Z,559.25
2023-02-19T01:51:44.782Z,559.11
2023-02-19T01:51:56.777Z,558.89
2023-02-19T01:52:08.793Z,558.72
2023-02-19T01:52:20.777Z,559.31
2023-02-19T01:52:32.758Z,559.39
2023-02-19T01:52:43.782Z,559.18
2023-02-19T01:52:55.774Z,559.68
2023-02-19T01:53:06.784Z,559.81
2023-02-19T01:53:18.775Z,559.80
2023-02-19T01:53:29.814Z,559.82
2023-02-19T01:53:41.813Z,559.83
2023-02-19T01:53:53.809Z,559.86
2023-02-19T01:54:05.816Z,559.98
2023-02-19T01:54:17.790Z,559.97
2023-02-19T01:54:29.777Z,560.11
2023-02-19T01:54:40.794Z,560.23
2023-02-19T01:54:52.801Z,560.31
2023-02-19T01:55:04.781Z,560.17
2023-02-19T01:55:16.767Z,560.08
2023-02-19T01:55:27.784Z,560.17
2023-02-19T01:55:39.785Z,560.16
2023-02-19T01:55:51.776Z,560.28
2023-02-19T01:56:02.797Z,560.43
2023-02-19T01:56:14.779Z,560.45
2023-02-19T01:56:25.790Z,560.28
2023-02-19T01:56:37.782Z,560.53
2023-02-19T01:56:49.766Z,560.80
2023-02-19T01:57:01.804Z,560.80
2023-02-19T01:57:13.772Z,560.77
2023-02-19T01:57:25.766Z,560.68
2023-02-19T01:57:36.807Z,560.67
2023-02-19T01:57:48.788Z,560.59
2023-02-19T01:58:00.773Z,560.56
2023-02-19T01:58:11.794Z,560.57
2023-02-19T01:58:23.765Z,560.60
2023-02-19T01:58:34.784Z,560.47
2023-02-19T01:58:46.771Z,560.50
2023-02-19T01:58:58.760Z,560.48
2023-02-19T01:59:09.770Z,560.52
2023-02-19T01:59:20.785Z,560.64
2023-02-19T01:59:32.758Z,560.56
2023-02-19T01:59:43.795Z,560.49
2023-02-19T01:59:55.768Z,560.68
2023-02-19T02:00:06.779Z,560.84
2023-02-19T02:00:18.754Z,560.98
2023-02-19T02:00:29.818Z,561.05
2023-02-19T02:00:40.760Z,561.09
2023-02-19T02:00:51.850Z,561.06
2023-02-19T02:01:03.778Z,561.01
2023-02-19T02:01:15.839Z,560.98
2023-02-19T02:01:26.785Z,561.04
2023-02-19T02:01:38.835Z,561.04
2023-02-19T02:01:49.817Z,561.11
2023-02-19T02:02:00.809Z,561.10
2023-02-19T02:02:12.835Z,561.10
2023-02-19T02:02:23.768Z,561.19
2023-02-19T02:02:34.779Z,561.25
2023-02-19T02:02:46.756Z,561.34
2023-02-19T02:02:57.770Z,561.44
2023-02-19T02:03:08.772Z,561.52
2023-02-19T02:03:19.800Z,561.58
2023-02-19T02:03:31.773Z,561.68
2023-02-19T02:03:42.782Z,561.79
2023-02-19T02:03:54.758Z,561.85
2023-02-19T02:04:05.764Z,561.92
2023-02-19T02:04:16.772Z,561.98
2023-02-19T02:04:27.780Z,562.03
2023-02-19T02:04:39.779Z,562.06
2023-02-19T02:04:51.762Z,562.17
2023-02-19T02:05:02.783Z,562.31
2023-02-19T02:05:14.760Z,562.33
2023-02-19T02:05:26.777Z,562.20
2023-02-19T02:05:37.797Z,562.20
2023-02-19T02:05:49.802Z,562.23
2023-02-19T02:06:01.772Z,562.23
2023-02-19T02:06:12.785Z,562.20
2023-02-19T02:06:24.804Z,562.19
2023-02-19T02:06:36.801Z,562.20
2023-02-19T02:06:48.792Z,562.30
2023-02-19T02:07:00.770Z,562.47
2023-02-19T02:07:11.788Z,562.55
2023-02-19T02:07:23.758Z,562.59
2023-02-19T02:07:34.775Z,562.53
2023-02-19T02:07:46.771Z,562.49
2023-02-19T02:07:58.765Z,562.55
2023-02-19T02:08:10.765Z,562.60
2023-02-19T02:08:21.779Z,562.60
2023-02-19T02:08:33.767Z,562.57
2023-02-19T02:08:44.786Z,562.55
2023-02-19T02:08:56.816Z,562.59
2023-02-19T02:09:08.796Z,562.63
2023-02-19T02:09:20.780Z,562.65
2023-02-19T02:09:31.793Z,562.65
2023-02-19T02:09:43.804Z,562.66
2023-02-19T02:09:55.778Z,562.58
2023-02-19T02:10:06.789Z,562.48
2023-02-19T02:10:18.773Z,562.50
2023-02-19T02:10:29.798Z,562.51
2023-02-19T02:10:41.776Z,562.59
2023-02-19T02:10:53.773Z,562.59
2023-02-19T02:11:04.799Z,562.55
2023-02-19T02:11:15.801Z,562.52
2023-02-19T02:11:27.800Z,562.38
2023-02-19T02:11:39.797Z,562.30
2023-02-19T02:11:51.789Z,562.35
2023-02-19T02:12:03.782Z,562.50
2023-02-19T02:12:15.766Z,562.51
2023-02-19T02:12:26.778Z,562.51
2023-02-19T02:12:38.774Z,562.50
2023-02-19T02:12:50.765Z,562.45
2023-02-19T02:13:02.769Z,562.49
2023-02-19T02:13:13.787Z,562.51
2023-02-19T02:13:25.794Z,562.48
2023-02-19T02:13:37.776Z,562.47
2023-02-19T02:13:49.788Z,562.42
2023-02-19T02:14:01.789Z,562.43
2023-02-19T02:14:13.772Z,562.48
2023-02-19T02:14:24.773Z,562.59
2023-02-19T02:14:35.789Z,562.62
2023-02-19T02:14:47.773Z,562.64
2023-02-19T02:14:59.763Z,562.67
2023-02-19T02:15:10.788Z,562.70
2023-02-19T02:15:21.801Z,562.66
2023-02-19T02:15:33.776Z,562.73
2023-02-19T02:15:44.792Z,562.72
2023-02-19T02:15:56.812Z,562.74
2023-02-19T02:16:07.778Z,562.81
2023-02-19T02:16:18.941Z,562.75
2023-02-19T02:16:29.810Z,562.81
2023-02-19T02:16:40.742Z,562.64
2023-02-19T02:16:51.766Z,562.70
2023-02-19T02:17:02.793Z,562.92
2023-02-19T02:17:13.754Z,563.13
2023-02-19T02:17:24.784Z,562.91
2023-02-19T02:17:35.797Z,562.68
2023-02-19T02:17:47.777Z,562.48
2023-02-19T02:17:58.801Z,562.45
2023-02-19T02:18:10.786Z,562.48
2023-02-19T02:18:21.794Z,562.51
2023-02-19T02:18:33.777Z,562.50
2023-02-19T02:18:45.800Z,562.32
2023-02-19T02:18:57.809Z,562.16
2023-02-19T02:19:09.781Z,562.38
2023-02-19T02:19:20.788Z,562.46
2023-02-19T02:19:32.812Z,562.59
2023-02-19T02:19:44.936Z,562.64
2023-02-19T02:19:56.814Z,562.65
2023-02-19T02:20:08.796Z,562.72
2023-02-19T02:20:20.764Z,562.76
2023-02-19T02:20:31.780Z,562.91
2023-02-19T02:20:42.787Z,563.00
2023-02-19T02:20:54.768Z,563.14
2023-02-19T02:21:05.786Z,563.28
2023-02-19T02:21:17.784Z,563.33
2023-02-19T02:21:29.764Z,563.29
2023-02-19T02:21:40.772Z,563.29
2023-02-19T02:21:51.786Z,563.33
2023-02-19T02:22:03.776Z,563.45
2023-02-19T02:22:15.771Z,563.54
2023-02-19T02:22:26.784Z,563.62
2023-02-19T02:22:37.792Z,563.72
2023-02-19T02:22:49.789Z,563.86
2023-02-19T02:23:00.802Z,563.99
2023-02-19T02:23:12.759Z,564.06
2023-02-19T02:23:23.793Z,564.13
2023-02-19T02:23:35.773Z,564.18
2023-02-19T02:23:47.767Z,564.29
2023-02-19T02:23:58.777Z,564.39
2023-02-19T02:24:10.777Z,564.46